sensor_id;sensor_type;location;lat;lon;timestamp;P1;durP1;ratioP1;P2;durP2;ratioP2
9280;SDS011;4679;47.966;7.958;2024-02-15T07:23:31;1.70;;;0.90;;
9280;SDS011;4679;47.966;7.958;2024-02-15T07:25:33;1.50;;;0.70;;
9280;SDS011;4679;47.966;7.958;2024-02-15T07:27:34;2.50;;;0.67;;
9280;SDS011;4679;47.966;7.958;2024-02-15T07:29:36;1.27;;;0.40;;
9280;SDS011;4679;47.966;7.958;2024-02-15T07:31:37;0.80;;;0.40;;
9280;SDS011;4679;47.966;7.958;2024-02-15T07:33:39;1.17;;;0.50;;
9280;SDS011;4679;47.966;7.958;2024-02-15T07:35:43;1.07;;;0.50;;
9280;SDS011;4679;47.966;7.958;2024-02-15T07:37:51;0.67;;;0.33;;
9280;SDS011;4679;47.966;7.958;2024-02-15T07:39:55;0.40;;;0.40;;
9280;SDS011;4679;47.966;7.958;2024-02-15T07:41:56;0.57;;;0.40;;
9280;SDS011;4679;47.966;7.958;2024-02-15T07:43:59;0.70;;;0.30;;
9280;SDS011;4679;47.966;7.958;2024-02-15T07:46:01;1.20;;;0.50;;
9280;SDS011;4679;47.966;7.958;2024-02-15T07:48:03;1.27;;;0.90;;
9280;SDS011;4679;47.966;7.958;2024-02-15T07:50:06;1.97;;;0.60;;
9280;SDS011;4679;47.966;7.958;2024-02-15T07:52:09;2.17;;;0.80;;
9280;SDS011;4679;47.966;7.958;2024-02-15T07:54:11;2.00;;;1.20;;
9280;SDS011;4679;47.966;7.958;2024-02-15T07:56:14;2.80;;;0.80;;
9280;SDS011;4679;47.966;7.958;2024-02-15T07:58:17;3.87;;;1.60;;
9280;SDS011;4679;47.966;7.958;2024-02-15T08:00:19;2.63;;;1.90;;
9280;SDS011;4679;47.966;7.958;2024-02-15T08:02:21;7.73;;;3.07;;
9280;SDS011;4679;47.966;7.958;2024-02-15T08:04:22;5.23;;;2.87;;
9280;SDS011;4679;47.966;7.958;2024-02-15T08:06:24;3.57;;;2.00;;
9280;SDS011;4679;47.966;7.958;2024-02-15T08:08:28;5.77;;;2.47;;
9280;SDS011;4679;47.966;7.958;2024-02-15T08:10:29;4.33;;;1.63;;
9280;SDS011;4679;47.966;7.958;2024-02-15T08:12:31;5.10;;;2.13;;
9280;SDS011;4679;47.966;7.958;2024-02-15T08:14:33;4.37;;;1.80;;
9280;SDS011;4679;47.966;7.958;2024-02-15T08:16:35;4.43;;;1.70;;
9280;SDS011;4679;47.966;7.958;2024-02-15T08:18:37;1.37;;;0.90;;
9280;SDS011;4679;47.966;7.958;2024-02-15T08:20:39;2.07;;;1.00;;
9280;SDS011;4679;47.966;7.958;2024-02-15T08:22:44;2.03;;;1.17;;
9280;SDS011;4679;47.966;7.958;2024-02-15T08:24:46;2.20;;;1.07;;
9280;SDS011;4679;47.966;7.958;2024-02-15T08:26:47;0.80;;;0.80;;
9280;SDS011;4679;47.966;7.958;2024-02-15T08:28:50;3.27;;;1.40;;
9280;SDS011;4679;47.966;7.958;2024-02-15T08:30:54;1.87;;;0.90;;
9280;SDS011;4679;47.966;7.958;2024-02-15T08:32:54;1.17;;;1.07;;
9280;SDS011;4679;47.966;7.958;2024-02-15T08:34:56;1.70;;;1.13;;
9280;SDS011;4679;47.966;7.958;2024-02-15T08:36:57;1.57;;;1.00;;
9280;SDS011;4679;47.966;7.958;2024-02-15T08:38:59;2.43;;;1.00;;
9280;SDS011;4679;47.966;7.958;2024-02-15T08:41:01;1.37;;;0.80;;
9280;SDS011;4679;47.966;7.958;2024-02-15T08:43:03;1.13;;;0.90;;
9280;SDS011;4679;47.966;7.958;2024-02-15T08:45:07;2.03;;;0.60;;
9280;SDS011;4679;47.966;7.958;2024-02-15T08:47:10;1.43;;;0.60;;
9280;SDS011;4679;47.966;7.958;2024-02-15T08:49:11;0.87;;;0.50;;
9280;SDS011;4679;47.966;7.958;2024-02-15T08:51:13;1.73;;;0.90;;
9280;SDS011;4679;47.966;7.958;2024-02-15T08:53:16;1.27;;;1.00;;
9280;SDS011;4679;47.966;7.958;2024-02-15T08:55:19;2.50;;;0.60;;
9280;SDS011;4679;47.966;7.958;2024-02-15T08:57:24;1.13;;;0.80;;
9280;SDS011;4679;47.966;7.958;2024-02-15T08:59:26;2.50;;;0.50;;
9280;SDS011;4679;47.966;7.958;2024-02-15T09:01:30;4.27;;;1.00;;
9280;SDS011;4679;47.966;7.958;2024-02-15T09:03:32;0.83;;;0.60;;
9280;SDS011;4679;47.966;7.958;2024-02-15T09:05:33;1.63;;;0.60;;
9280;SDS011;4679;47.966;7.958;2024-02-15T09:07:35;0.90;;;0.60;;
9280;SDS011;4679;47.966;7.958;2024-02-15T09:09:37;1.27;;;0.60;;
9280;SDS011;4679;47.966;7.958;2024-02-15T09:11:39;1.10;;;0.60;;
9280;SDS011;4679;47.966;7.958;2024-02-15T09:13:40;2.00;;;0.67;;
9280;SDS011;4679;47.966;7.958;2024-02-15T09:15:42;2.50;;;0.60;;
9280;SDS011;4679;47.966;7.958;2024-02-15T09:17:45;1.63;;;0.70;;
9280;SDS011;4679;47.966;7.958;2024-02-15T09:19:46;1.03;;;0.70;;
9280;SDS011;4679;47.966;7.958;2024-02-15T09:21:49;2.03;;;0.50;;
9280;SDS011;4679;47.966;7.958;2024-02-15T09:23:51;0.70;;;0.60;;
9280;SDS011;4679;47.966;7.958;2024-02-15T09:25:52;2.83;;;0.50;;
9280;SDS011;4679;47.966;7.958;2024-02-15T09:27:54;1.53;;;0.67;;
9280;SDS011;4679;47.966;7.958;2024-02-15T09:29:55;0.70;;;0.53;;
9280;SDS011;4679;47.966;7.958;2024-02-15T09:31:56;1.33;;;0.53;;
9280;SDS011;4679;47.966;7.958;2024-02-15T09:33:59;1.43;;;0.60;;
9280;SDS011;4679;47.966;7.958;2024-02-15T09:36:00;3.23;;;0.50;;
9280;SDS011;4679;47.966;7.958;2024-02-15T09:38:02;0.97;;;0.30;;
9280;SDS011;4679;47.966;7.958;2024-02-15T09:40:07;1.23;;;0.40;;
9280;SDS011;4679;47.966;7.958;2024-02-15T09:42:10;2.30;;;0.40;;
9280;SDS011;4679;47.966;7.958;2024-02-15T09:44:12;2.40;;;0.43;;
9280;SDS011;4679;47.966;7.958;2024-02-15T09:46:14;3.37;;;0.40;;
9280;SDS011;4679;47.966;7.958;2024-02-15T09:48:17;3.23;;;0.60;;
9280;SDS011;4679;47.966;7.958;2024-02-15T09:50:23;1.67;;;0.50;;
9280;SDS011;4679;47.966;7.958;2024-02-15T09:52:27;1.43;;;0.50;;
9280;SDS011;4679;47.966;7.958;2024-02-15T09:54:32;1.23;;;0.70;;
9280;SDS011;4679;47.966;7.958;2024-02-15T09:56:35;2.73;;;0.90;;
9280;SDS011;4679;47.966;7.958;2024-02-15T09:58:37;1.33;;;0.60;;
9280;SDS011;4679;47.966;7.958;2024-02-15T10:00:39;1.00;;;0.70;;
9280;SDS011;4679;47.966;7.958;2024-02-15T10:02:43;0.70;;;0.50;;
9280;SDS011;4679;47.966;7.958;2024-02-15T10:04:45;1.27;;;0.50;;
9280;SDS011;4679;47.966;7.958;2024-02-15T10:06:48;0.93;;;0.53;;
9280;SDS011;4679;47.966;7.958;2024-02-15T10:08:50;5.50;;;0.67;;
9280;SDS011;4679;47.966;7.958;2024-02-15T10:11:04;0.87;;;0.60;;
9280;SDS011;4679;47.966;7.958;2024-02-15T10:13:08;1.13;;;0.60;;
9280;SDS011;4679;47.966;7.958;2024-02-15T10:15:29;1.10;;;0.90;;
9280;SDS011;4679;47.966;7.958;2024-02-15T10:17:32;3.67;;;0.80;;
9280;SDS011;4679;47.966;7.958;2024-02-15T10:19:35;2.03;;;0.60;;
9280;SDS011;4679;47.966;7.958;2024-02-15T10:21:37;1.80;;;0.77;;
9280;SDS011;4679;47.966;7.958;2024-02-15T10:23:41;2.27;;;1.00;;
9280;SDS011;4679;47.966;7.958;2024-02-15T10:25:43;1.00;;;0.87;;
9280;SDS011;4679;47.966;7.958;2024-02-15T10:27:45;1.17;;;0.50;;
9280;SDS011;4679;47.966;7.958;2024-02-15T10:29:47;1.53;;;0.73;;
9280;SDS011;4679;47.966;7.958;2024-02-15T10:31:52;1.27;;;0.87;;
9280;SDS011;4679;47.966;7.958;2024-02-15T10:33:59;1.30;;;0.60;;
9280;SDS011;4679;47.966;7.958;2024-02-15T10:36:07;2.37;;;0.70;;
9280;SDS011;4679;47.966;7.958;2024-02-15T10:38:11;2.40;;;0.60;;
9280;SDS011;4679;47.966;7.958;2024-02-15T10:40:15;2.67;;;0.80;;
9280;SDS011;4679;47.966;7.958;2024-02-15T10:42:19;0.50;;;0.50;;
9280;SDS011;4679;47.966;7.958;2024-02-15T10:44:21;0.87;;;0.50;;
9280;SDS011;4679;47.966;7.958;2024-02-15T10:46:25;3.03;;;0.60;;
9280;SDS011;4679;47.966;7.958;2024-02-15T10:48:26;2.07;;;0.60;;
9280;SDS011;4679;47.966;7.958;2024-02-15T10:50:29;0.67;;;0.50;;
9280;SDS011;4679;47.966;7.958;2024-02-15T10:52:31;1.37;;;0.40;;
9280;SDS011;4679;47.966;7.958;2024-02-15T10:54:43;1.67;;;0.40;;
9280;SDS011;4679;47.966;7.958;2024-02-15T10:56:50;0.70;;;0.50;;
9280;SDS011;4679;47.966;7.958;2024-02-15T10:58:59;0.83;;;0.47;;
9280;SDS011;4679;47.966;7.958;2024-02-15T11:01:06;1.60;;;0.33;;
9280;SDS011;4679;47.966;7.958;2024-02-15T11:03:10;0.33;;;0.20;;
9280;SDS011;4679;47.966;7.958;2024-02-15T11:05:20;0.80;;;0.50;;
9280;SDS011;4679;47.966;7.958;2024-02-15T11:07:24;0.70;;;0.43;;
9280;SDS011;4679;47.966;7.958;2024-02-15T11:09:27;0.50;;;0.30;;
9280;SDS011;4679;47.966;7.958;2024-02-15T11:11:30;0.73;;;0.40;;
9280;SDS011;4679;47.966;7.958;2024-02-15T11:13:33;0.50;;;0.40;;
9280;SDS011;4679;47.966;7.958;2024-02-15T11:15:43;1.07;;;0.30;;
9280;SDS011;4679;47.966;7.958;2024-02-15T11:17:50;1.47;;;0.60;;
9280;SDS011;4679;47.966;7.958;2024-02-15T11:19:50;1.23;;;0.40;;
9280;SDS011;4679;47.966;7.958;2024-02-15T11:21:52;0.50;;;0.40;;
9280;SDS011;4679;47.966;7.958;2024-02-15T11:23:53;0.80;;;0.40;;
9280;SDS011;4679;47.966;7.958;2024-02-15T11:25:55;4.73;;;0.40;;
9280;SDS011;4679;47.966;7.958;2024-02-15T11:28:05;0.83;;;0.40;;
9280;SDS011;4679;47.966;7.958;2024-02-15T11:30:50;1.07;;;0.40;;
9280;SDS011;4679;47.966;7.958;2024-02-15T11:32:51;5.43;;;0.50;;
9280;SDS011;4679;47.966;7.958;2024-02-15T11:35:00;1.10;;;0.30;;
9280;SDS011;4679;47.966;7.958;2024-02-15T11:37:09;1.20;;;0.40;;
9280;SDS011;4679;47.966;7.958;2024-02-15T11:41:44;0.90;;;0.40;;
9280;SDS011;4679;47.966;7.958;2024-02-15T11:44:07;1.40;;;0.50;;
9280;SDS011;4679;47.966;7.958;2024-02-15T11:46:11;1.23;;;0.50;;
9280;SDS011;4679;47.966;7.958;2024-02-15T11:48:13;0.87;;;0.30;;
9280;SDS011;4679;47.966;7.958;2024-02-15T11:50:16;0.73;;;0.30;;
9280;SDS011;4679;47.966;7.958;2024-02-15T11:52:17;2.60;;;0.50;;
9280;SDS011;4679;47.966;7.958;2024-02-15T11:54:21;0.43;;;0.37;;
9280;SDS011;4679;47.966;7.958;2024-02-15T11:56:22;0.57;;;0.30;;
9280;SDS011;4679;47.966;7.958;2024-02-15T11:58:23;1.07;;;0.40;;
9280;SDS011;4679;47.966;7.958;2024-02-15T12:00:32;0.60;;;0.30;;
9280;SDS011;4679;47.966;7.958;2024-02-15T12:02:51;9.10;;;0.77;;
9280;SDS011;4679;47.966;7.958;2024-02-15T12:05:10;3.67;;;0.50;;
9280;SDS011;4679;47.966;7.958;2024-02-15T12:07:29;1.13;;;0.40;;
9280;SDS011;4679;47.966;7.958;2024-02-15T12:09:49;4.17;;;0.60;;
9280;SDS011;4679;47.966;7.958;2024-02-15T12:12:09;1.13;;;0.40;;
9280;SDS011;4679;47.966;7.958;2024-02-15T12:14:28;1.27;;;0.40;;
9280;SDS011;4679;47.966;7.958;2024-02-15T12:16:59;0.60;;;0.57;;
9280;SDS011;4679;47.966;7.958;2024-02-15T12:19:19;2.00;;;1.23;;
9280;SDS011;4679;47.966;7.958;2024-02-15T12:21:22;3.17;;;1.00;;
9280;SDS011;4679;47.966;7.958;2024-02-15T12:23:27;2.83;;;1.20;;
9280;SDS011;4679;47.966;7.958;2024-02-15T12:25:27;3.77;;;1.10;;
9280;SDS011;4679;47.966;7.958;2024-02-15T12:27:33;3.57;;;1.27;;
9280;SDS011;4679;47.966;7.958;2024-02-15T12:29:35;4.40;;;1.20;;
9280;SDS011;4679;47.966;7.958;2024-02-15T12:31:36;2.27;;;1.10;;
9280;SDS011;4679;47.966;7.958;2024-02-15T12:33:40;1.83;;;1.20;;
9280;SDS011;4679;47.966;7.958;2024-02-15T12:35:42;2.63;;;1.30;;
9280;SDS011;4679;47.966;7.958;2024-02-15T12:37:43;3.50;;;1.10;;
9280;SDS011;4679;47.966;7.958;2024-02-15T12:39:45;2.57;;;1.00;;
9280;SDS011;4679;47.966;7.958;2024-02-15T12:41:48;2.33;;;1.93;;
9280;SDS011;4679;47.966;7.958;2024-02-15T12:43:52;2.27;;;0.97;;
9280;SDS011;4679;47.966;7.958;2024-02-15T12:45:53;1.40;;;1.27;;
9280;SDS011;4679;47.966;7.958;2024-02-15T12:47:57;1.27;;;1.17;;
9280;SDS011;4679;47.966;7.958;2024-02-15T12:50:02;3.37;;;1.30;;
9280;SDS011;4679;47.966;7.958;2024-02-15T12:52:33;4.43;;;1.10;;
9280;SDS011;4679;47.966;7.958;2024-02-15T12:54:38;4.07;;;1.57;;
9280;SDS011;4679;47.966;7.958;2024-02-15T12:56:42;4.60;;;1.70;;
9280;SDS011;4679;47.966;7.958;2024-02-15T12:58:43;2.03;;;1.50;;
9280;SDS011;4679;47.966;7.958;2024-02-15T13:00:45;4.57;;;1.43;;
9280;SDS011;4679;47.966;7.958;2024-02-15T13:02:47;3.47;;;1.50;;
9280;SDS011;4679;47.966;7.958;2024-02-15T13:04:49;1.70;;;1.60;;
9280;SDS011;4679;47.966;7.958;2024-02-15T13:06:51;3.30;;;1.50;;
9280;SDS011;4679;47.966;7.958;2024-02-15T13:08:53;3.73;;;1.60;;
9280;SDS011;4679;47.966;7.958;2024-02-15T13:10:54;3.43;;;1.67;;
9280;SDS011;4679;47.966;7.958;2024-02-15T13:12:56;4.37;;;1.90;;
9280;SDS011;4679;47.966;7.958;2024-02-15T13:14:58;2.17;;;1.27;;
9280;SDS011;4679;47.966;7.958;2024-02-15T13:16:59;2.37;;;1.53;;
9280;SDS011;4679;47.966;7.958;2024-02-15T13:19:02;5.00;;;1.50;;
9280;SDS011;4679;47.966;7.958;2024-02-15T13:21:07;3.57;;;1.57;;
9280;SDS011;4679;47.966;7.958;2024-02-15T13:23:11;2.03;;;1.20;;
9280;SDS011;4679;47.966;7.958;2024-02-15T13:25:14;1.63;;;1.40;;
9280;SDS011;4679;47.966;7.958;2024-02-15T13:27:17;2.27;;;1.43;;
9280;SDS011;4679;47.966;7.958;2024-02-15T13:29:18;4.37;;;1.97;;
9280;SDS011;4679;47.966;7.958;2024-02-15T13:31:21;2.13;;;1.70;;
9280;SDS011;4679;47.966;7.958;2024-02-15T13:33:23;2.37;;;1.63;;
9280;SDS011;4679;47.966;7.958;2024-02-15T13:35:26;3.40;;;1.70;;
9280;SDS011;4679;47.966;7.958;2024-02-15T13:37:28;2.63;;;1.30;;
9280;SDS011;4679;47.966;7.958;2024-02-15T13:39:31;1.87;;;1.50;;
9280;SDS011;4679;47.966;7.958;2024-02-15T13:41:34;4.37;;;1.50;;
9280;SDS011;4679;47.966;7.958;2024-02-15T13:43:35;5.53;;;1.67;;
9280;SDS011;4679;47.966;7.958;2024-02-15T13:45:38;2.67;;;1.70;;
9280;SDS011;4679;47.966;7.958;2024-02-15T13:47:41;2.97;;;1.67;;
9280;SDS011;4679;47.966;7.958;2024-02-15T13:49:46;3.73;;;1.40;;
9280;SDS011;4679;47.966;7.958;2024-02-15T13:51:48;2.30;;;1.60;;
9280;SDS011;4679;47.966;7.958;2024-02-15T13:53:52;2.03;;;1.33;;
9280;SDS011;4679;47.966;7.958;2024-02-15T13:55:55;3.70;;;1.50;;
9280;SDS011;4679;47.966;7.958;2024-02-15T13:57:58;4.27;;;1.77;;
9280;SDS011;4679;47.966;7.958;2024-02-15T14:00:00;2.07;;;1.60;;
9280;SDS011;4679;47.966;7.958;2024-02-15T14:02:01;2.20;;;1.70;;
9280;SDS011;4679;47.966;7.958;2024-02-15T14:04:04;3.53;;;2.10;;
9280;SDS011;4679;47.966;7.958;2024-02-15T14:06:06;3.93;;;1.83;;
9280;SDS011;4679;47.966;7.958;2024-02-15T14:08:07;6.73;;;2.07;;
9280;SDS011;4679;47.966;7.958;2024-02-15T14:10:11;2.90;;;1.60;;
9280;SDS011;4679;47.966;7.958;2024-02-15T14:12:14;2.80;;;1.53;;
9280;SDS011;4679;47.966;7.958;2024-02-15T14:14:15;3.37;;;1.67;;
9280;SDS011;4679;47.966;7.958;2024-02-15T14:16:17;3.30;;;1.40;;
9280;SDS011;4679;47.966;7.958;2024-02-15T14:18:19;5.47;;;2.10;;
9280;SDS011;4679;47.966;7.958;2024-02-15T14:20:21;1.80;;;1.10;;
9280;SDS011;4679;47.966;7.958;2024-02-15T14:22:21;2.70;;;1.30;;
9280;SDS011;4679;47.966;7.958;2024-02-15T14:24:23;3.03;;;1.20;;
9280;SDS011;4679;47.966;7.958;2024-02-15T14:26:25;2.20;;;0.90;;
9280;SDS011;4679;47.966;7.958;2024-02-15T14:28:32;2.17;;;1.10;;
9280;SDS011;4679;47.966;7.958;2024-02-15T14:30:35;2.20;;;1.10;;
9280;SDS011;4679;47.966;7.958;2024-02-15T14:32:54;2.60;;;1.03;;
9280;SDS011;4679;47.966;7.958;2024-02-15T14:35:03;3.63;;;1.07;;
9280;SDS011;4679;47.966;7.958;2024-02-15T14:37:06;1.30;;;1.00;;
9280;SDS011;4679;47.966;7.958;2024-02-15T14:39:10;2.03;;;1.37;;
9280;SDS011;4679;47.966;7.958;2024-02-15T14:41:13;3.33;;;1.57;;
9280;SDS011;4679;47.966;7.958;2024-02-15T14:43:14;2.10;;;1.33;;
9280;SDS011;4679;47.966;7.958;2024-02-15T14:45:16;2.83;;;1.40;;
9280;SDS011;4679;47.966;7.958;2024-02-15T14:47:18;6.27;;;1.43;;
9280;SDS011;4679;47.966;7.958;2024-02-15T14:49:20;3.13;;;1.40;;
9280;SDS011;4679;47.966;7.958;2024-02-15T14:51:24;3.57;;;1.67;;
9280;SDS011;4679;47.966;7.958;2024-02-15T14:53:25;3.83;;;1.93;;
9280;SDS011;4679;47.966;7.958;2024-02-15T14:55:27;5.23;;;1.70;;
9280;SDS011;4679;47.966;7.958;2024-02-15T14:57:31;5.10;;;2.00;;
9280;SDS011;4679;47.966;7.958;2024-02-15T14:59:33;1.93;;;1.53;;
9280;SDS011;4679;47.966;7.958;2024-02-15T15:01:36;4.17;;;1.67;;
9280;SDS011;4679;47.966;7.958;2024-02-15T15:03:38;3.50;;;1.70;;
9280;SDS011;4679;47.966;7.958;2024-02-15T15:05:39;4.23;;;2.13;;
9280;SDS011;4679;47.966;7.958;2024-02-15T15:07:58;2.67;;;1.93;;
9280;SDS011;4679;47.966;7.958;2024-02-15T15:10:17;5.57;;;2.43;;
9280;SDS011;4679;47.966;7.958;2024-02-15T15:12:36;2.67;;;2.20;;
9280;SDS011;4679;47.966;7.958;2024-02-15T15:14:39;2.87;;;1.70;;
9280;SDS011;4679;47.966;7.958;2024-02-15T15:16:43;3.63;;;2.10;;
9280;SDS011;4679;47.966;7.958;2024-02-15T15:18:45;2.90;;;2.20;;
9280;SDS011;4679;47.966;7.958;2024-02-15T15:20:47;2.77;;;1.80;;
9280;SDS011;4679;47.966;7.958;2024-02-15T15:22:49;4.40;;;1.80;;
9280;SDS011;4679;47.966;7.958;2024-02-15T15:24:51;4.67;;;2.00;;
9280;SDS011;4679;47.966;7.958;2024-02-15T15:26:52;7.20;;;2.23;;
9280;SDS011;4679;47.966;7.958;2024-02-15T15:28:53;5.03;;;1.77;;
9280;SDS011;4679;47.966;7.958;2024-02-15T15:30:55;4.53;;;2.63;;
9280;SDS011;4679;47.966;7.958;2024-02-15T15:32:58;2.23;;;1.70;;
9280;SDS011;4679;47.966;7.958;2024-02-15T15:34:59;2.17;;;1.63;;
9280;SDS011;4679;47.966;7.958;2024-02-15T15:37:00;4.23;;;1.70;;
9280;SDS011;4679;47.966;7.958;2024-02-15T15:39:02;5.20;;;1.67;;
9280;SDS011;4679;47.966;7.958;2024-02-15T15:41:08;4.27;;;1.50;;
9280;SDS011;4679;47.966;7.958;2024-02-15T15:43:10;3.13;;;1.83;;
9280;SDS011;4679;47.966;7.958;2024-02-15T15:45:14;2.53;;;1.80;;
9280;SDS011;4679;47.966;7.958;2024-02-15T15:47:16;5.00;;;1.97;;
9280;SDS011;4679;47.966;7.958;2024-02-15T15:49:19;5.17;;;1.40;;
9280;SDS011;4679;47.966;7.958;2024-02-15T15:51:20;5.47;;;1.83;;
9280;SDS011;4679;47.966;7.958;2024-02-15T15:53:22;4.03;;;1.80;;
9280;SDS011;4679;47.966;7.958;2024-02-15T15:55:24;3.23;;;1.70;;
9280;SDS011;4679;47.966;7.958;2024-02-15T15:57:26;3.63;;;1.87;;
9280;SDS011;4679;47.966;7.958;2024-02-15T15:59:26;3.00;;;1.53;;
9280;SDS011;4679;47.966;7.958;2024-02-15T16:01:28;3.70;;;1.77;;
9280;SDS011;4679;47.966;7.958;2024-02-15T16:03:30;4.07;;;1.90;;
9280;SDS011;4679;47.966;7.958;2024-02-15T16:05:33;1.93;;;1.50;;
9280;SDS011;4679;47.966;7.958;2024-02-15T16:07:34;3.40;;;1.80;;
9280;SDS011;4679;47.966;7.958;2024-02-15T16:09:36;3.07;;;1.80;;
9280;SDS011;4679;47.966;7.958;2024-02-15T16:11:41;3.40;;;2.00;;
9280;SDS011;4679;47.966;7.958;2024-02-15T16:13:42;5.43;;;1.97;;
9280;SDS011;4679;47.966;7.958;2024-02-15T16:15:43;3.63;;;1.60;;
9280;SDS011;4679;47.966;7.958;2024-02-15T16:17:46;4.40;;;1.50;;
9280;SDS011;4679;47.966;7.958;2024-02-15T16:19:47;2.53;;;1.73;;
9280;SDS011;4679;47.966;7.958;2024-02-15T16:21:50;6.10;;;1.70;;
9280;SDS011;4679;47.966;7.958;2024-02-15T16:23:52;2.77;;;1.73;;
9280;SDS011;4679;47.966;7.958;2024-02-15T16:25:53;2.33;;;1.87;;
9280;SDS011;4679;47.966;7.958;2024-02-15T16:27:58;6.03;;;2.20;;
9280;SDS011;4679;47.966;7.958;2024-02-15T16:30:00;2.87;;;1.67;;
9280;SDS011;4679;47.966;7.958;2024-02-15T16:32:03;5.97;;;2.00;;
9280;SDS011;4679;47.966;7.958;2024-02-15T16:34:06;3.73;;;1.60;;
9280;SDS011;4679;47.966;7.958;2024-02-15T16:36:08;2.30;;;1.53;;
9280;SDS011;4679;47.966;7.958;2024-02-15T16:38:11;3.57;;;1.93;;
9280;SDS011;4679;47.966;7.958;2024-02-15T16:40:12;4.33;;;1.90;;
9280;SDS011;4679;47.966;7.958;2024-02-15T16:42:14;4.23;;;2.00;;
9280;SDS011;4679;47.966;7.958;2024-02-15T16:44:15;4.30;;;2.13;;
9280;SDS011;4679;47.966;7.958;2024-02-15T16:46:16;5.13;;;2.40;;
9280;SDS011;4679;47.966;7.958;2024-02-15T16:48:18;4.47;;;2.07;;
9280;SDS011;4679;47.966;7.958;2024-02-15T16:50:20;2.83;;;1.93;;
9280;SDS011;4679;47.966;7.958;2024-02-15T16:52:22;3.23;;;2.37;;
9280;SDS011;4679;47.966;7.958;2024-02-15T16:54:25;3.70;;;1.90;;
9280;SDS011;4679;47.966;7.958;2024-02-15T16:56:27;3.83;;;2.10;;
9280;SDS011;4679;47.966;7.958;2024-02-15T16:58:30;4.77;;;2.30;;
9280;SDS011;4679;47.966;7.958;2024-02-15T17:00:32;4.23;;;2.17;;
9280;SDS011;4679;47.966;7.958;2024-02-15T17:02:33;4.03;;;2.50;;
9280;SDS011;4679;47.966;7.958;2024-02-15T17:04:34;4.90;;;3.00;;
9280;SDS011;4679;47.966;7.958;2024-02-15T17:06:37;15.60;;;11.50;;
9280;SDS011;4679;47.966;7.958;2024-02-15T17:08:43;6.67;;;4.10;;
9280;SDS011;4679;47.966;7.958;2024-02-15T17:10:47;9.57;;;5.13;;
9280;SDS011;4679;47.966;7.958;2024-02-15T17:12:48;6.10;;;3.40;;
9280;SDS011;4679;47.966;7.958;2024-02-15T17:14:50;4.90;;;3.90;;
9280;SDS011;4679;47.966;7.958;2024-02-15T17:16:51;6.23;;;3.90;;
9280;SDS011;4679;47.966;7.958;2024-02-15T17:18:54;5.23;;;3.13;;
9280;SDS011;4679;47.966;7.958;2024-02-15T17:20:56;8.03;;;4.03;;
9280;SDS011;4679;47.966;7.958;2024-02-15T17:22:57;6.53;;;2.80;;
9280;SDS011;4679;47.966;7.958;2024-02-15T17:24:59;5.73;;;3.60;;
9280;SDS011;4679;47.966;7.958;2024-02-15T17:27:06;7.40;;;4.77;;
9280;SDS011;4679;47.966;7.958;2024-02-15T17:29:08;6.43;;;5.20;;
9280;SDS011;4679;47.966;7.958;2024-02-15T17:31:13;6.33;;;4.80;;
9280;SDS011;4679;47.966;7.958;2024-02-15T17:33:15;7.93;;;4.43;;
9280;SDS011;4679;47.966;7.958;2024-02-15T17:35:18;6.90;;;4.10;;
9280;SDS011;4679;47.966;7.958;2024-02-15T17:37:20;5.43;;;3.70;;
9280;SDS011;4679;47.966;7.958;2024-02-15T17:39:21;5.90;;;3.30;;
9280;SDS011;4679;47.966;7.958;2024-02-15T17:41:22;3.97;;;2.80;;
9280;SDS011;4679;47.966;7.958;2024-02-15T17:43:24;3.47;;;2.80;;
9280;SDS011;4679;47.966;7.958;2024-02-15T17:45:26;5.00;;;2.80;;
9280;SDS011;4679;47.966;7.958;2024-02-15T17:47:27;6.10;;;2.83;;
9280;SDS011;4679;47.966;7.958;2024-02-15T17:49:28;3.63;;;2.70;;
9280;SDS011;4679;47.966;7.958;2024-02-15T17:51:30;5.43;;;2.87;;
9280;SDS011;4679;47.966;7.958;2024-02-15T17:53:34;7.80;;;5.13;;
9280;SDS011;4679;47.966;7.958;2024-02-15T17:55:37;5.83;;;4.60;;
9280;SDS011;4679;47.966;7.958;2024-02-15T17:57:39;4.37;;;3.97;;
9280;SDS011;4679;47.966;7.958;2024-02-15T17:59:41;7.10;;;3.80;;
9280;SDS011;4679;47.966;7.958;2024-02-15T18:01:43;6.53;;;3.50;;
9280;SDS011;4679;47.966;7.958;2024-02-15T18:03:44;7.60;;;2.47;;
9280;SDS011;4679;47.966;7.958;2024-02-15T18:05:46;3.47;;;2.30;;
9280;SDS011;4679;47.966;7.958;2024-02-15T18:07:47;4.33;;;2.73;;
9280;SDS011;4679;47.966;7.958;2024-02-15T18:09:49;4.17;;;2.50;;
9280;SDS011;4679;47.966;7.958;2024-02-15T18:11:51;6.40;;;2.50;;
9280;SDS011;4679;47.966;7.958;2024-02-15T18:13:53;4.93;;;2.67;;
9280;SDS011;4679;47.966;7.958;2024-02-15T18:15:57;2.50;;;2.27;;
9280;SDS011;4679;47.966;7.958;2024-02-15T18:17:58;5.67;;;2.70;;
9280;SDS011;4679;47.966;7.958;2024-02-15T18:20:00;4.33;;;2.30;;
9280;SDS011;4679;47.966;7.958;2024-02-15T18:22:03;5.43;;;2.40;;
9280;SDS011;4679;47.966;7.958;2024-02-15T18:24:06;3.87;;;2.23;;
9280;SDS011;4679;47.966;7.958;2024-02-15T18:26:07;2.70;;;1.97;;
9280;SDS011;4679;47.966;7.958;2024-02-15T18:28:09;4.40;;;2.37;;
9280;SDS011;4679;47.966;7.958;2024-02-15T18:30:13;6.93;;;2.63;;
9280;SDS011;4679;47.966;7.958;2024-02-15T18:32:19;3.87;;;2.67;;
9280;SDS011;4679;47.966;7.958;2024-02-15T18:34:20;8.13;;;2.97;;
9280;SDS011;4679;47.966;7.958;2024-02-15T18:36:22;4.50;;;2.63;;
9280;SDS011;4679;47.966;7.958;2024-02-15T18:38:24;7.37;;;2.67;;
9280;SDS011;4679;47.966;7.958;2024-02-15T18:40:27;2.73;;;2.23;;
9280;SDS011;4679;47.966;7.958;2024-02-15T18:42:30;5.07;;;2.83;;
9280;SDS011;4679;47.966;7.958;2024-02-15T18:44:32;3.27;;;2.37;;
9280;SDS011;4679;47.966;7.958;2024-02-15T18:46:34;3.23;;;2.50;;
9280;SDS011;4679;47.966;7.958;2024-02-15T18:48:37;6.40;;;3.10;;
9280;SDS011;4679;47.966;7.958;2024-02-15T18:50:43;3.30;;;2.20;;
9280;SDS011;4679;47.966;7.958;2024-02-15T18:52:44;7.03;;;2.60;;
9280;SDS011;4679;47.966;7.958;2024-02-15T18:54:46;4.13;;;3.20;;
9280;SDS011;4679;47.966;7.958;2024-02-15T18:56:47;4.23;;;3.83;;
9280;SDS011;4679;47.966;7.958;2024-02-15T18:58:55;6.60;;;3.77;;
9280;SDS011;4679;47.966;7.958;2024-02-15T19:00:56;4.60;;;3.87;;
9280;SDS011;4679;47.966;7.958;2024-02-15T19:02:58;4.77;;;3.33;;
9280;SDS011;4679;47.966;7.958;2024-02-15T19:05:00;3.97;;;3.27;;
9280;SDS011;4679;47.966;7.958;2024-02-15T19:07:11;4.73;;;2.20;;
9280;SDS011;4679;47.966;7.958;2024-02-15T19:09:12;4.80;;;2.40;;
9280;SDS011;4679;47.966;7.958;2024-02-15T19:11:13;3.10;;;1.80;;
9280;SDS011;4679;47.966;7.958;2024-02-15T19:13:15;3.97;;;2.53;;
9280;SDS011;4679;47.966;7.958;2024-02-15T19:15:25;4.63;;;3.93;;
9280;SDS011;4679;47.966;7.958;2024-02-15T19:17:26;7.60;;;4.67;;
9280;SDS011;4679;47.966;7.958;2024-02-15T19:19:28;9.87;;;4.73;;
9280;SDS011;4679;47.966;7.958;2024-02-15T19:21:31;4.33;;;3.93;;
9280;SDS011;4679;47.966;7.958;2024-02-15T19:23:33;6.33;;;4.27;;
9280;SDS011;4679;47.966;7.958;2024-02-15T19:25:34;4.40;;;4.00;;
9280;SDS011;4679;47.966;7.958;2024-02-15T19:27:35;6.33;;;4.30;;
9280;SDS011;4679;47.966;7.958;2024-02-15T19:29:37;7.10;;;4.30;;
9280;SDS011;4679;47.966;7.958;2024-02-15T19:31:38;6.37;;;4.63;;
9280;SDS011;4679;47.966;7.958;2024-02-15T19:33:40;9.83;;;6.73;;
9280;SDS011;4679;47.966;7.958;2024-02-15T19:35:42;8.67;;;6.23;;
9280;SDS011;4679;47.966;7.958;2024-02-15T19:37:45;5.57;;;5.03;;
9280;SDS011;4679;47.966;7.958;2024-02-15T19:39:46;5.40;;;4.90;;
9280;SDS011;4679;47.966;7.958;2024-02-15T19:41:52;6.00;;;5.13;;
9280;SDS011;4679;47.966;7.958;2024-02-15T19:43:55;5.27;;;3.93;;
9280;SDS011;4679;47.966;7.958;2024-02-15T19:45:57;7.17;;;3.83;;
9280;SDS011;4679;47.966;7.958;2024-02-15T19:47:58;4.67;;;4.00;;
9280;SDS011;4679;47.966;7.958;2024-02-15T19:50:01;4.20;;;3.53;;
9280;SDS011;4679;47.966;7.958;2024-02-15T19:52:03;4.97;;;3.43;;
9280;SDS011;4679;47.966;7.958;2024-02-15T19:54:10;4.23;;;2.93;;
9280;SDS011;4679;47.966;7.958;2024-02-15T19:56:12;5.10;;;3.80;;
9280;SDS011;4679;47.966;7.958;2024-02-15T19:58:14;4.83;;;3.70;;
9280;SDS011;4679;47.966;7.958;2024-02-15T20:00:16;5.30;;;3.57;;
9280;SDS011;4679;47.966;7.958;2024-02-15T20:02:18;5.33;;;3.17;;
9280;SDS011;4679;47.966;7.958;2024-02-15T20:04:20;4.03;;;3.17;;
9280;SDS011;4679;47.966;7.958;2024-02-15T20:06:22;4.43;;;2.67;;
9280;SDS011;4679;47.966;7.958;2024-02-15T20:08:25;6.77;;;3.10;;
9280;SDS011;4679;47.966;7.958;2024-02-15T20:10:28;4.10;;;2.57;;
9280;SDS011;4679;47.966;7.958;2024-02-15T20:12:29;4.30;;;3.17;;